createdAt,value
2022-12-14T00:07:59.682Z,10.6
2022-12-14T00:08:38.267Z,10.6
2022-12-14T00:18:11.067Z,10.5
2022-12-14T00:28:00.922Z,9.5
2022-12-14T00:29:42.501Z,9.5
2022-12-14T00:38:01.736Z,9.9
2022-12-14T00:48:02.340Z,9.1
2022-12-14T00:58:05.468Z,8.2
2022-12-14T01:08:03.445Z,9.1
2022-12-14T01:18:05.366Z,8.8
2022-12-14T01:28:05.651Z,7.9
2022-12-14T01:38:05.192Z,9.1
2022-12-14T01:43:08.795Z,9.1
2022-12-14T01:44:33.785Z,9.1
2022-12-14T01:48:05.695Z,8.7
2022-12-14T01:58:16.112Z,9.5
2022-12-14T02:08:06.661Z,7.7
2022-12-14T02:18:07.211Z,8.6
2022-12-14T02:28:07.667Z,8
2022-12-14T02:32:13.097Z,8
2022-12-14T02:38:08.217Z,8.1
2022-12-14T02:48:08.618Z,8
2022-12-14T02:58:08.989Z,7.9
2022-12-14T03:08:17.227Z,7.3
2022-12-14T03:18:09.941Z,7.4
2022-12-14T03:28:10.408Z,7.2
2022-12-14T03:38:48.685Z,7
2022-12-14T03:48:15.660Z,6.8
2022-12-14T03:58:11.629Z,7.4
2022-12-14T04:00:34.649Z,7.4
2022-12-14T04:08:12.213Z,8
2022-12-14T04:18:12.549Z,7.8
2022-12-14T04:28:12.924Z,7.8
2022-12-14T04:38:13.302Z,8.1
2022-12-14T04:48:14.791Z,8.4
2022-12-14T04:58:13.883Z,7.9
2022-12-14T05:08:15.571Z,7.5
2022-12-14T05:18:14.545Z,8
2022-12-14T05:28:14.815Z,8.7
2022-12-14T05:38:16.557Z,10.4
2022-12-14T05:48:15.533Z,9.2
2022-12-14T05:58:17.277Z,8.3
2022-12-14T06:04:52.472Z,8.3
2022-12-14T06:08:16.214Z,8.3
2022-12-14T06:18:16.450Z,7.9
2022-12-14T06:28:16.837Z,7.9
2022-12-14T06:38:17.162Z,7.8
2022-12-14T06:48:17.481Z,7.6
2022-12-14T06:58:17.909Z,7.7
2022-12-14T07:04:28.630Z,7.7
2022-12-14T07:08:22.490Z,8
2022-12-14T07:18:18.825Z,7.6
2022-12-14T07:28:18.985Z,7.8
2022-12-14T07:38:19.488Z,7.4
2022-12-14T07:48:19.768Z,8.2
2022-12-14T07:54:28.704Z,8.2
2022-12-14T07:58:20.063Z,7.5
2022-12-14T08:08:20.384Z,8.4
2022-12-14T08:18:20.637Z,8.5
2022-12-14T08:28:20.867Z,8.2
2022-12-14T08:38:22.415Z,9.8
2022-12-14T08:48:21.437Z,11.3
2022-12-14T08:58:21.588Z,11
2022-12-14T09:08:21.908Z,11.6
2022-12-14T09:18:22.136Z,12.1
2022-12-14T09:28:22.415Z,11.1
2022-12-14T09:38:22.619Z,10.8
2022-12-14T09:48:24.210Z,11.4
2022-12-14T09:58:23.110Z,10.7
2022-12-14T10:08:23.402Z,10.1
2022-12-14T10:18:49.798Z,9.8
2022-12-14T10:28:23.948Z,9.9
2022-12-14T10:38:24.409Z,11
2022-12-14T10:48:24.386Z,10.3
2022-12-14T10:58:24.602Z,10.3
2022-12-14T11:08:24.864Z,11.3
2022-12-14T11:18:25.171Z,10.1
2022-12-14T11:28:25.739Z,9.7
2022-12-14T11:38:25.743Z,10.7
2022-12-14T11:47:41.225Z,10.7
2022-12-14T11:48:25.953Z,9.8
2022-12-14T11:58:26.078Z,10.8
2022-12-14T12:08:29.402Z,10.3
2022-12-14T12:10:37.941Z,10.3
2022-12-14T12:11:45.646Z,10.3
2022-12-14T12:18:31.940Z,10.4
2022-12-14T12:28:29.195Z,11.4
2022-12-14T12:38:28.599Z,11
2022-12-14T12:48:27.797Z,11.7
2022-12-14T12:58:28.185Z,11.9
2022-12-14T13:08:34.776Z,12.8
2022-12-14T13:18:56.319Z,12.1
2022-12-14T13:22:33.810Z,12.1
2022-12-14T13:24:28.822Z,12.1
2022-12-14T13:28:28.487Z,11.8
2022-12-14T13:32:36.885Z,11.8
2022-12-14T13:34:32.874Z,11.8
2022-12-14T13:36:34.663Z,11.8
2022-12-14T13:38:44.079Z,11.3
2022-12-14T13:39:10.622Z,11.3
2022-12-14T13:48:29.397Z,11.5
2022-12-14T13:51:25.872Z,11.5
2022-12-14T13:58:29.571Z,13.4
2022-12-14T14:06:52.618Z,13.4
2022-12-14T14:08:31.278Z,11.1
2022-12-14T14:18:30.369Z,10.9
2022-12-14T14:28:28.817Z,10.9
2022-12-14T14:28:31.386Z,11.1
2022-12-14T14:38:31.054Z,11
2022-12-14T14:48:31.304Z,11.9
2022-12-14T14:55:10.960Z,11.9
2022-12-14T14:58:31.777Z,11.1
2022-12-14T15:08:32.192Z,11.2
2022-12-14T15:18:32.337Z,9.7
2022-12-14T15:28:40.018Z,10.4
2022-12-14T15:32:12.420Z,10.4
2022-12-14T15:38:33.411Z,10.7
2022-12-14T15:48:34.445Z,12.9
2022-12-14T15:58:40.869Z,10.1
2022-12-14T16:05:50.168Z,10.1
2022-12-14T16:08:36.348Z,10.6
2022-12-14T16:18:41.609Z,8.4
2022-12-14T16:28:36.216Z,6.8
2022-12-14T16:32:28.790Z,6.8
2022-12-14T16:38:36.983Z,6.8
2022-12-14T16:48:38.702Z,5.7
2022-12-14T16:54:28.681Z,5.7
2022-12-14T16:58:47.490Z,6.7
2022-12-14T17:07:40.667Z,6.7
2022-12-14T17:08:43.096Z,6.1
2022-12-14T17:18:40.726Z,7.6
2022-12-14T17:28:40.196Z,8.3
2022-12-14T17:34:34.635Z,8.3
2022-12-14T17:38:51.259Z,8.8
2022-12-14T17:46:28.900Z,8.8
2022-12-14T17:48:41.727Z,7.1
2022-12-14T17:58:42.408Z,7.9
2022-12-14T18:08:28.763Z,7.9
2022-12-14T18:08:43.192Z,7
2022-12-14T18:18:44.072Z,8.5
2022-12-14T18:28:45.085Z,8.7
2022-12-14T18:38:45.995Z,7.2
2022-12-14T18:43:01.756Z,7.2
2022-12-14T18:45:46.865Z,7.2
2022-12-14T18:48:47.771Z,7
2022-12-14T18:58:48.567Z,8.6
2022-12-14T19:08:49.479Z,7.2
2022-12-14T19:18:48.920Z,7
2022-12-14T19:28:37.381Z,7
2022-12-14T19:28:51.075Z,7.9
2022-12-14T19:38:50.460Z,7.7
2022-12-14T19:48:51.284Z,7.4
2022-12-14T19:58:52.066Z,6.9
2022-12-14T20:00:37.785Z,6.9
2022-12-14T20:08:53.968Z,7.1
2022-12-14T20:18:55.180Z,7
2022-12-14T20:19:42.820Z,7
2022-12-14T20:28:57.346Z,7.5
2022-12-14T20:32:31.312Z,7.5
2022-12-14T20:39:17.751Z,7.9
2022-12-14T20:48:57.464Z,7.5
2022-12-14T20:58:56.992Z,7.8
2022-12-14T21:02:35.213Z,7.8
2022-12-14T21:09:03.535Z,7.6
2022-12-14T21:10:29.646Z,7.6
2022-12-14T21:18:59.469Z,7
2022-12-14T21:29:01.995Z,7
2022-12-14T21:32:28.753Z,7
2022-12-14T21:39:04.842Z,6.4
2022-12-14T21:49:01.002Z,7.2
2022-12-14T21:52:34.489Z,7.2
2022-12-14T21:59:04.685Z,7.3
2022-12-14T22:00:32.747Z,7.3
2022-12-14T22:01:04.295Z,7.3
2022-12-14T22:04:26.729Z,7.3
2022-12-14T22:09:03.928Z,7.8
2022-12-14T22:14:29.557Z,7.8
2022-12-14T22:18:29.728Z,7.8
2022-12-14T22:19:03.456Z,7.7
2022-12-14T22:28:39.734Z,7.7
2022-12-14T22:29:05.667Z,7.4
2022-12-14T22:33:05.713Z,7.4
2022-12-14T22:34:32.990Z,7.4
2022-12-14T22:39:05.001Z,7
2022-12-14T22:49:05.694Z,7.8
2022-12-14T22:54:29.788Z,7.8
2022-12-14T22:59:06.436Z,7.1
2022-12-14T23:06:29.950Z,7.1
2022-12-14T23:09:08.290Z,7.2
2022-12-14T23:12:40.214Z,7.2
2022-12-14T23:14:29.832Z,7.2
2022-12-14T23:19:07.967Z,7.2
2022-12-14T23:29:08.680Z,7.5
2022-12-14T23:39:09.467Z,7.3
2022-12-14T23:40:20.472Z,7.3
2022-12-14T23:49:15.251Z,7.5
2022-12-14T23:59:13.882Z,10.5
